Time;durP1;ratioP1;P1;durP2;ratioP2;P2;SDS_P1;SDS_P2;PMS_P1;PMS_P2;Temp;Humidity;BMP_temperature;BMP_pressure;BME280_temperature;BME280_humidity;BME280_pressure;Samples;Min_cycle;Max_cycle;Signal;HPM_P1;HPM_P2
2021/12/11 05:00:51;;;;;;;11.87;10.67;;;4.00;99.90;;;;;;5886711;23;20959;-77
2021/12/11 05:04:04;;;;;;;10.50;9.50;;;4.00;99.90;;;;;;4975713;28;20840;-77
2021/12/11 05:06:43;;;;;;;11.00;10.00;;;4.00;99.90;;;;;;4975231;28;20453;-76
2021/12/11 05:09:23;;;;;;;11.80;10.70;;;3.90;99.90;;;;;;4975844;28;20463;-77
2021/12/11 05:12:05;;;;;;;11.90;9.87;;;3.90;99.90;;;;;;4976593;28;20500;-77
2021/12/11 05:14:32;;;;;;;11.17;10.17;;;3.90;99.90;;;;;;4975454;28;20457;-77
2021/12/11 05:17:00;;;;;;;11.57;10.17;;;3.90;99.90;;;;;;4975563;28;20460;-77
2021/12/11 05:19:27;;;;;;;10.20;9.20;;;3.90;99.90;;;;;;4975592;28;20446;-77
2021/12/11 05:21:54;;;;;;;10.33;9.40;;;3.90;99.90;;;;;;4975380;28;20486;-77
2021/12/11 05:24:21;;;;;;;9.20;8.40;;;3.90;99.90;;;;;;4975420;28;20455;-77
2021/12/11 05:26:48;;;;;;;10.30;9.50;;;3.90;99.90;;;;;;4975278;28;20462;-77
2021/12/11 05:29:15;;;;;;;9.87;8.97;;;3.90;99.90;;;;;;4975379;28;20874;-77
2021/12/11 05:31:42;;;;;;;10.60;9.73;;;3.90;99.90;;;;;;4975730;28;20497;-77
2021/12/11 05:34:10;;;;;;;9.90;8.00;;;3.90;99.90;;;;;;4975806;28;20462;-77
2021/12/11 05:36:38;;;;;;;10.00;9.10;;;3.80;99.90;;;;;;4975179;28;20482;-77
2021/12/11 05:39:09;;;;;;;11.43;9.43;;;3.80;99.90;;;;;;4975273;28;20455;-77
2021/12/11 05:41:37;;;;;;;10.27;9.47;;;3.80;99.90;;;;;;4975679;28;20479;-78
2021/12/11 05:44:04;;;;;;;10.97;9.97;;;3.80;99.90;;;;;;4975395;28;20855;-77
2021/12/11 05:46:31;;;;;;;10.80;9.83;;;3.70;99.90;;;;;;4975628;28;20478;-78
2021/12/11 05:48:58;;;;;;;9.80;8.90;;;3.70;99.90;;;;;;4975578;28;20483;-78
2021/12/11 05:51:26;;;;;;;12.73;11.13;;;3.70;99.90;;;;;;4975117;28;20487;-78
2021/12/11 05:53:59;;;;;;;11.50;10.50;;;3.70;99.90;;;;;;4976412;28;20513;-77
2021/12/11 05:56:26;;;;;;;10.40;9.50;;;3.80;99.90;;;;;;4975890;28;20530;-77
2021/12/11 05:58:59;;;;;;;10.47;9.57;;;3.80;99.90;;;;;;4976172;28;20446;-77
2021/12/11 06:01:33;;;;;;;10.37;9.47;;;3.70;99.90;;;;;;4975390;28;20487;-78
2021/12/11 06:04:04;;;;;;;12.33;11.23;;;3.70;99.90;;;;;;4975560;28;20773;-77
2021/12/11 06:06:32;;;;;;;12.30;11.10;;;3.70;99.90;;;;;;4975260;28;20455;-75
2021/12/11 06:08:59;;;;;;;11.30;10.17;;;3.80;99.90;;;;;;4975518;28;20479;-78
2021/12/11 06:11:26;;;;;;;12.97;11.70;;;3.80;99.90;;;;;;4976090;28;20486;-76
2021/12/11 06:13:53;;;;;;;12.20;11.20;;;3.80;99.90;;;;;;4976279;28;20827;-77
2021/12/11 06:16:20;;;;;;;13.23;12.03;;;3.80;99.90;;;;;;4976053;28;20473;-78
2021/12/11 06:18:47;;;;;;;14.17;12.80;;;3.70;99.90;;;;;;4979229;28;20458;-77
2021/12/11 06:21:14;;;;;;;12.83;11.63;;;3.70;99.90;;;;;;4979998;28;20475;-76
2021/12/11 06:23:43;;;;;;;14.67;13.27;;;3.80;99.90;;;;;;4979713;28;20463;-77
2021/12/11 06:26:10;;;;;;;13.80;12.40;;;3.80;99.90;;;;;;4979568;28;20463;-78
2021/12/11 06:28:37;;;;;;;12.27;11.07;;;3.70;99.90;;;;;;4981111;28;20478;-78
2021/12/11 06:31:05;;;;;;;13.70;12.50;;;3.70;99.90;;;;;;4979752;28;20474;-77
2021/12/11 06:33:33;;;;;;;13.70;12.40;;;3.70;99.90;;;;;;4980829;28;20466;-78
2021/12/11 06:36:02;;;;;;;12.30;11.20;;;3.70;99.90;;;;;;4979961;28;20451;-77
2021/12/11 06:38:31;;;;;;;11.80;10.60;;;3.70;99.90;;;;;;4979809;28;20458;-77
2021/12/11 06:41:07;;;;;;;14.00;12.70;;;3.70;99.90;;;;;;4980497;28;20483;-77
2021/12/11 06:43:35;;;;;;;13.17;11.87;;;3.80;99.90;;;;;;4980011;28;20443;-77
2021/12/11 06:46:01;;;;;;;12.10;11.00;;;3.90;99.90;;;;;;4981761;28;20465;-78
2021/12/11 06:48:29;;;;;;;14.13;12.63;;;3.80;99.90;;;;;;4981995;28;20831;-78
2021/12/11 06:50:56;;;;;;;11.00;10.00;;;3.80;99.90;;;;;;4981093;28;20479;-77
2021/12/11 06:53:27;;;;;;;14.03;12.07;;;3.80;99.90;;;;;;4982566;28;20439;-77
2021/12/11 06:55:54;;;;;;;13.30;12.00;;;3.80;99.90;;;;;;4981733;28;20424;-77
2021/12/11 06:58:25;;;;;;;12.90;11.60;;;3.80;99.90;;;;;;4981901;28;20463;-77
2021/12/11 07:00:52;;;;;;;13.50;11.70;;;3.80;99.90;;;;;;4980391;28;20486;-77
2021/12/11 07:03:19;;;;;;;16.50;14.73;;;3.80;99.90;;;;;;4980646;28;20466;-77
2021/12/11 07:05:46;;;;;;;13.67;12.27;;;3.80;99.90;;;;;;4982709;28;20474;-77
2021/12/11 07:08:13;;;;;;;14.23;12.83;;;3.80;99.90;;;;;;4983494;28;20451;-77
2021/12/11 07:10:40;;;;;;;13.20;11.90;;;3.80;99.90;;;;;;4980342;28;20571;-77
2021/12/11 07:13:08;;;;;;;12.60;11.40;;;3.90;99.90;;;;;;4982485;28;20960;-77
2021/12/11 07:15:36;;;;;;;13.20;11.93;;;3.90;99.90;;;;;;4981203;28;20463;-77
2021/12/11 07:18:03;;;;;;;15.63;14.13;;;3.90;99.90;;;;;;4982251;28;20462;-78
2021/12/11 07:20:30;;;;;;;13.97;12.57;;;3.90;99.90;;;;;;4979012;28;20474;-76
2021/12/11 07:22:56;;;;;;;15.63;13.93;;;3.90;99.90;;;;;;4978553;28;20463;-77
2021/12/11 07:25:30;;;;;;;13.83;12.53;;;3.90;99.90;;;;;;4978826;28;20472;-77
2021/12/11 07:28:01;;;;;;;15.40;13.90;;;4.00;99.90;;;;;;4979534;28;20444;-78
2021/12/11 07:30:28;;;;;;;15.40;14.00;;;4.00;99.90;;;;;;4978844;28;20474;-76
2021/12/11 07:32:58;;;;;;;14.27;12.87;;;4.00;99.90;;;;;;4979013;28;20842;-78
2021/12/11 07:35:25;;;;;;;12.97;11.67;;;3.90;99.90;;;;;;4980404;28;20455;-78
2021/12/11 07:37:55;;;;;;;13.03;11.67;;;3.80;99.90;;;;;;4981016;28;20465;-78
2021/12/11 07:40:24;;;;;;;17.57;14.10;;;3.80;99.90;;;;;;4983255;28;20455;-76
2021/12/11 07:42:51;;;;;;;15.10;13.50;;;3.80;99.90;;;;;;4982663;28;20459;-77
2021/12/11 07:45:19;;;;;;;15.57;14.07;;;3.80;99.90;;;;;;4981390;28;20463;-77
2021/12/11 07:47:45;;;;;;;14.87;13.37;;;3.70;99.90;;;;;;4979542;28;20863;-75
2021/12/11 07:50:14;;;;;;;14.17;12.77;;;3.70;99.90;;;;;;4978825;28;20479;-76
2021/12/11 07:52:41;;;;;;;14.70;13.20;;;3.80;99.90;;;;;;4981072;28;20451;-75
2021/12/11 07:55:09;;;;;;;13.90;12.47;;;3.80;99.90;;;;;;4980390;28;20458;-75
2021/12/11 07:57:37;;;;;;;13.17;11.90;;;3.80;99.90;;;;;;4979531;28;20513;-75
2021/12/11 08:00:05;;;;;;;17.60;15.10;;;3.80;99.90;;;;;;4977883;28;20767;-75
2021/12/11 08:02:32;;;;;;;15.50;13.97;;;3.80;99.90;;;;;;4977859;28;20483;-75
2021/12/11 08:04:59;;;;;;;18.40;14.67;;;3.80;99.90;;;;;;4977435;28;20463;-75
2021/12/11 08:07:27;;;;;;;15.70;14.00;;;3.90;99.90;;;;;;4976609;28;20974;-75
2021/12/11 08:09:54;;;;;;;18.00;13.37;;;3.80;99.90;;;;;;4976889;28;20514;-75
2021/12/11 08:12:21;;;;;;;18.17;15.30;;;3.90;99.90;;;;;;4976848;28;20479;-75
2021/12/11 08:14:49;;;;;;;15.57;13.20;;;3.90;99.90;;;;;;4976519;28;20463;-76
2021/12/11 08:17:16;;;;;;;16.20;13.30;;;3.90;99.90;;;;;;4976812;28;20542;-75
2021/12/11 08:19:44;;;;;;;17.27;13.83;;;3.90;99.90;;;;;;4976917;28;20462;-75
2021/12/11 08:22:11;;;;;;;16.13;14.63;;;3.90;99.90;;;;;;4976865;28;20525;-76
2021/12/11 08:24:39;;;;;;;20.17;16.27;;;4.00;99.90;;;;;;4976848;28;20463;-74
2021/12/11 08:27:11;;;;;;;15.07;13.57;;;4.00;99.90;;;;;;4976531;28;20653;-76
2021/12/11 08:29:38;;;;;;;17.87;16.00;;;4.10;99.90;;;;;;4976548;28;20517;-74
2021/12/11 08:32:06;;;;;;;17.30;15.57;;;4.10;99.90;;;;;;4976280;28;20479;-75
2021/12/11 08:34:33;;;;;;;19.33;17.33;;;4.10;99.90;;;;;;4976837;28;20464;-76
2021/12/11 08:37:02;;;;;;;19.73;17.63;;;4.10;99.90;;;;;;4977143;28;20946;-76
2021/12/11 08:39:29;;;;;;;17.27;15.40;;;4.20;99.90;;;;;;4977204;28;20451;-75
2021/12/11 08:42:02;;;;;;;18.70;16.67;;;4.20;99.90;;;;;;4975553;28;20483;-76
2021/12/11 08:44:34;;;;;;;19.30;16.50;;;4.20;99.90;;;;;;4977233;28;20446;-76
2021/12/11 08:47:05;;;;;;;18.10;16.27;;;4.20;99.90;;;;;;4977516;28;20914;-76
2021/12/11 08:49:34;;;;;;;19.67;17.67;;;4.10;99.90;;;;;;4978229;28;20990;-77
2021/12/11 08:52:04;;;;;;;18.60;16.60;;;4.20;99.90;;;;;;4976464;28;20482;-76
2021/12/11 08:54:32;;;;;;;19.23;17.23;;;4.20;99.90;;;;;;4976267;28;20446;-78
2021/12/11 08:57:04;;;;;;;18.90;16.90;;;4.30;99.90;;;;;;4976583;28;20451;-77
2021/12/11 08:59:33;;;;;;;20.27;17.67;;;4.30;99.90;;;;;;4977079;28;20921;-75
2021/12/11 09:02:05;;;;;;;18.60;16.70;;;4.30;99.90;;;;;;4976668;28;20989;-73
2021/12/11 09:04:39;;;;;;;20.47;16.47;;;4.30;99.90;;;;;;4976448;28;20451;-72
2021/12/11 09:07:09;;;;;;;15.80;14.17;;;4.30;99.90;;;;;;4976221;28;20538;-72
2021/12/11 09:09:39;;;;;;;17.63;15.77;;;4.30;99.90;;;;;;4976009;28;20474;-72
2021/12/11 09:12:11;;;;;;;18.90;16.50;;;4.30;99.90;;;;;;4975571;28;20982;-72
2021/12/11 09:14:41;;;;;;;20.33;17.67;;;4.30;99.90;;;;;;4975532;28;20911;-72
2021/12/11 09:17:11;;;;;;;19.97;17.77;;;4.30;99.90;;;;;;4975949;28;20459;-72
2021/12/11 09:19:41;;;;;;;21.33;18.17;;;4.30;99.90;;;;;;4975979;28;20450;-72
2021/12/11 09:22:12;;;;;;;25.07;19.80;;;4.40;99.90;;;;;;4975935;28;20482;-72
2021/12/11 09:24:43;;;;;;;30.63;20.63;;;4.40;99.90;;;;;;4975842;28;20799;-72
2021/12/11 09:27:16;;;;;;;29.87;20.50;;;4.40;99.90;;;;;;4975613;28;20970;-72
2021/12/11 09:29:47;;;;;;;32.10;23.23;;;4.40;99.90;;;;;;4977187;28;20463;-72
2021/12/11 09:32:20;;;;;;;30.83;22.27;;;4.50;99.90;;;;;;4976815;28;20485;-71
2021/12/11 09:34:52;;;;;;;23.87;21.20;;;4.60;99.90;;;;;;4976985;28;20447;-72
2021/12/11 09:37:20;;;;;;;24.07;20.87;;;4.60;99.90;;;;;;4977726;28;20454;-72
2021/12/11 09:39:51;;;;;;;25.57;17.97;;;4.60;99.90;;;;;;4976743;28;20512;-73
2021/12/11 09:42:17;;;;;;;21.43;18.10;;;4.60;99.90;;;;;;4975985;28;20514;-72
2021/12/11 09:44:50;;;;;;;26.57;20.27;;;4.60;99.90;;;;;;4977702;28;20455;-75
2021/12/11 09:47:21;;;;;;;24.10;20.40;;;4.60;99.90;;;;;;4975630;28;20444;-75
2021/12/11 09:49:53;;;;;;;19.70;15.50;;;4.80;99.90;;;;;;4975298;28;20970;-74
2021/12/11 09:52:24;;;;;;;18.40;16.03;;;4.80;99.90;;;;;;4976094;28;20478;-74
2021/12/11 09:54:54;;;;;;;16.70;14.90;;;4.80;99.90;;;;;;4979380;28;20907;-74
2021/12/11 09:57:24;;;;;;;18.83;16.83;;;4.90;99.90;;;;;;4979971;28;20522;-74
2021/12/11 09:59:54;;;;;;;17.60;14.80;;;5.00;99.90;;;;;;4979954;28;20447;-74
2021/12/11 10:02:24;;;;;;;18.70;16.00;;;5.00;99.90;;;;;;4980145;28;20487;-75
2021/12/11 10:04:59;;;;;;;13.17;11.87;;;5.10;99.90;;;;;;4980447;28;20451;-75
2021/12/11 10:07:32;;;;;;;15.07;13.40;;;5.20;99.90;;;;;;4981284;28;20477;-74
2021/12/11 10:10:14;;;;;;;14.37;12.97;;;5.30;99.90;;;;;;4981429;28;21025;-74
2021/12/11 10:12:45;;;;;;;15.70;14.10;;;5.30;99.90;;;;;;4980984;28;20439;-74
2021/12/11 10:15:17;;;;;;;12.20;11.00;;;5.40;99.90;;;;;;4980611;28;20455;-76
2021/12/11 10:17:49;;;;;;;11.80;10.60;;;5.40;99.90;;;;;;4980368;28;20455;-76
2021/12/11 10:20:23;;;;;;;12.17;10.97;;;5.40;99.90;;;;;;4979952;28;20435;-75
2021/12/11 10:22:52;;;;;;;12.47;11.17;;;5.30;99.90;;;;;;4979575;28;20922;-75
2021/12/11 10:25:23;;;;;;;12.53;11.27;;;5.30;99.90;;;;;;4979722;28;20459;-75
2021/12/11 10:27:50;;;;;;;17.03;12.63;;;5.30;99.90;;;;;;4979171;28;20914;-75
2021/12/11 10:30:24;;;;;;;14.27;11.10;;;5.30;99.90;;;;;;4978911;28;20482;-74
2021/12/11 10:32:51;;;;;;;11.93;10.70;;;5.30;99.90;;;;;;4979667;28;20446;-76
2021/12/11 10:35:23;;;;;;;11.40;10.40;;;5.30;99.90;;;;;;4979585;28;20458;-75
2021/12/11 10:37:50;;;;;;;13.57;11.37;;;5.20;99.90;;;;;;4980537;28;20443;-75
2021/12/11 10:40:20;;;;;;;15.63;10.57;;;5.20;99.90;;;;;;4980559;28;20442;-75
2021/12/11 10:42:52;;;;;;;12.10;10.87;;;5.20;99.90;;;;;;4979855;28;20450;-75
2021/12/11 10:45:21;;;;;;;10.60;9.17;;;5.30;99.90;;;;;;4978771;28;20454;-75
2021/12/11 10:47:51;;;;;;;12.30;11.07;;;5.30;99.90;;;;;;4979077;28;20459;-75
2021/12/11 10:50:22;;;;;;;10.80;9.80;;;5.30;99.90;;;;;;4979205;28;20463;-76
2021/12/11 10:52:50;;;;;;;9.90;8.90;;;5.40;99.90;;;;;;4978863;28;20443;-78
2021/12/11 10:55:20;;;;;;;9.13;8.33;;;5.40;99.90;;;;;;4979327;28;20431;-76
2021/12/11 10:57:48;;;;;;;10.70;9.47;;;5.40;99.90;;;;;;4979352;28;20459;-76
2021/12/11 11:00:22;;;;;;;10.20;9.20;;;5.40;99.90;;;;;;4978694;28;20458;-77
2021/12/11 11:02:49;;;;;;;10.00;8.87;;;5.40;99.90;;;;;;4980540;28;20450;-77
2021/12/11 11:05:19;;;;;;;10.80;9.70;;;5.50;99.90;;;;;;4979128;28;20455;-77
2021/12/11 11:07:47;;;;;;;9.70;8.90;;;5.70;99.90;;;;;;4979747;28;20458;-77
2021/12/11 11:10:18;;;;;;;11.10;10.03;;;5.80;99.90;;;;;;4977945;28;21016;-76
2021/12/11 11:12:46;;;;;;;9.40;8.50;;;5.90;99.90;;;;;;4978223;28;20446;-76
2021/12/11 11:15:17;;;;;;;9.57;8.67;;;5.90;99.90;;;;;;4978347;28;20455;-76
2021/12/11 11:17:45;;;;;;;9.40;8.50;;;5.90;99.90;;;;;;4977700;28;20903;-76
2021/12/11 11:20:17;;;;;;;9.57;8.70;;;5.90;99.90;;;;;;4978087;28;20861;-76
2021/12/11 11:22:46;;;;;;;9.27;8.30;;;6.00;99.90;;;;;;4978273;28;20439;-76
2021/12/11 11:25:16;;;;;;;10.00;9.10;;;6.00;99.90;;;;;;4978188;28;20486;-76
2021/12/11 11:27:46;;;;;;;9.00;8.20;;;6.10;99.90;;;;;;4977518;28;20914;-77
2021/12/11 11:30:17;;;;;;;9.57;8.67;;;6.10;99.90;;;;;;4977376;28;20515;-76
2021/12/11 11:32:45;;;;;;;10.27;9.37;;;6.10;99.90;;;;;;4977579;28;20439;-76
2021/12/11 11:35:16;;;;;;;10.10;9.10;;;6.30;99.90;;;;;;4977574;28;20455;-77
2021/12/11 11:37:43;;;;;;;10.20;9.30;;;6.40;99.90;;;;;;4977919;28;20538;-76
2021/12/11 11:40:14;;;;;;;9.20;8.30;;;6.50;99.90;;;;;;4979854;28;20440;-77
2021/12/11 11:42:42;;;;;;;10.07;9.23;;;6.60;99.90;;;;;;4985142;28;20507;-77
2021/12/11 11:45:12;;;;;;;10.33;8.90;;;6.70;99.90;;;;;;4996238;28;20627;-77
2021/12/11 11:47:41;;;;;;;9.10;8.20;;;6.70;99.90;;;;;;4996773;28;20471;-76
2021/12/11 11:50:12;;;;;;;8.70;7.97;;;6.80;99.90;;;;;;4981147;28;20440;-77
2021/12/11 11:52:41;;;;;;;9.67;8.47;;;6.80;99.90;;;;;;4978018;28;20451;-76
2021/12/11 11:55:12;;;;;;;9.83;8.80;;;6.80;99.90;;;;;;4977892;28;20443;-77
2021/12/11 11:57:47;;;;;;;9.50;8.60;;;6.80;99.90;;;;;;4978601;28;20440;-77
2021/12/11 12:00:18;;;;;;;9.07;8.27;;;6.80;99.90;;;;;;4978551;28;20589;-77
2021/12/11 12:02:46;;;;;;;11.13;10.13;;;6.80;99.90;;;;;;4977939;28;20444;-74
2021/12/11 12:05:14;;;;;;;10.90;9.73;;;6.80;99.90;;;;;;4977319;28;20494;-74
2021/12/11 12:07:41;;;;;;;10.47;9.37;;;6.70;99.90;;;;;;4977293;28;20448;-74
2021/12/11 12:10:12;;;;;;;15.43;10.47;;;6.50;99.90;;;;;;4977607;28;20446;-74
2021/12/11 12:12:39;;;;;;;10.73;9.63;;;6.40;99.90;;;;;;4977759;28;20462;-74
2021/12/11 12:15:09;;;;;;;10.07;9.23;;;6.30;99.90;;;;;;4977052;28;20455;-75
2021/12/11 12:17:36;;;;;;;10.60;9.50;;;6.30;99.90;;;;;;4977281;28;20439;-74
2021/12/11 12:20:06;;;;;;;10.90;8.93;;;6.20;99.90;;;;;;4976768;28;20455;-74
2021/12/11 12:22:34;;;;;;;10.80;9.23;;;6.20;99.90;;;;;;4976946;28;20523;-74
2021/12/11 12:25:02;;;;;;;11.00;9.90;;;6.10;99.90;;;;;;4976901;28;20961;-74
2021/12/11 12:27:32;;;;;;;11.10;10.10;;;6.10;99.90;;;;;;4976985;28;20451;-73
2021/12/11 12:30:00;;;;;;;11.10;10.17;;;6.10;99.90;;;;;;4976255;28;20470;-73
2021/12/11 12:32:30;;;;;;;11.00;10.10;;;6.20;99.90;;;;;;4976522;28;20503;-74
2021/12/11 12:35:00;;;;;;;10.83;9.83;;;6.20;99.90;;;;;;4977114;28;20443;-74
2021/12/11 12:37:28;;;;;;;9.80;8.90;;;6.20;99.90;;;;;;4976937;28;20459;-74
2021/12/11 12:39:59;;;;;;;10.47;9.37;;;6.20;99.90;;;;;;4976630;28;20472;-74
2021/12/11 12:42:34;;;;;;;10.93;9.93;;;6.20;99.90;;;;;;4976780;28;20475;-74
2021/12/11 12:45:08;;;;;;;11.20;10.20;;;6.20;99.90;;;;;;4975977;28;20899;-74
2021/12/11 12:47:38;;;;;;;14.13;10.57;;;6.20;99.90;;;;;;4976409;28;20854;-74
2021/12/11 12:50:08;;;;;;;12.40;11.30;;;6.20;99.90;;;;;;4976140;28;20446;-73
2021/12/11 12:52:42;;;;;;;11.67;10.57;;;6.20;99.90;;;;;;4975693;28;20998;-74
2021/12/11 12:55:14;;;;;;;12.40;10.60;;;6.20;99.90;;;;;;4976478;28;20439;-74
2021/12/11 12:57:44;;;;;;;13.00;11.80;;;6.20;99.90;;;;;;4976377;28;20447;-73
2021/12/11 13:00:18;;;;;;;13.27;11.70;;;6.20;99.90;;;;;;4975986;28;20458;-73
2021/12/11 13:02:47;;;;;;;13.40;12.10;;;6.10;99.90;;;;;;4976086;28;20486;-73
2021/12/11 13:05:17;;;;;;;13.60;12.40;;;6.10;99.90;;;;;;4975911;28;20454;-73
2021/12/11 13:07:45;;;;;;;18.27;12.60;;;6.10;99.90;;;;;;4976588;28;20444;-73
2021/12/11 13:10:18;;;;;;;15.53;11.87;;;6.10;99.90;;;;;;4976665;28;20435;-74
2021/12/11 13:12:47;;;;;;;13.77;12.47;;;6.00;99.90;;;;;;4976426;28;20440;-75
2021/12/11 13:15:20;;;;;;;15.77;13.47;;;5.90;99.90;;;;;;4976134;28;20795;-74
2021/12/11 13:17:52;;;;;;;14.17;12.73;;;5.90;99.90;;;;;;4975675;28;20914;-73
2021/12/11 13:20:22;;;;;;;14.67;13.27;;;5.80;99.90;;;;;;4976244;28;20494;-74
2021/12/11 13:22:49;;;;;;;13.50;12.20;;;5.80;99.90;;;;;;4976274;28;20444;-75
2021/12/11 13:25:20;;;;;;;14.97;13.37;;;5.70;99.90;;;;;;4976377;28;20468;-75
2021/12/11 13:27:49;;;;;;;20.03;13.93;;;5.70;99.90;;;;;;4976077;28;20506;-75
2021/12/11 13:30:20;;;;;;;14.00;12.53;;;5.70;99.90;;;;;;4975566;28;20461;-75
2021/12/11 13:32:48;;;;;;;13.50;12.10;;;5.70;99.90;;;;;;4975717;28;20467;-74
2021/12/11 13:35:17;;;;;;;13.53;12.27;;;5.70;99.90;;;;;;4975854;28;20455;-74
2021/12/11 13:37:45;;;;;;;13.23;12.00;;;5.70;99.90;;;;;;4976003;28;20459;-75
2021/12/11 13:40:15;;;;;;;13.07;11.77;;;5.70;99.90;;;;;;4975338;28;20978;-75
2021/12/11 13:42:45;;;;;;;11.00;10.10;;;5.70;99.90;;;;;;4976414;28;20443;-74
2021/12/11 13:45:18;;;;;;;12.43;11.23;;;5.70;99.90;;;;;;4975742;28;20462;-76
2021/12/11 13:47:46;;;;;;;11.73;10.60;;;5.70;99.90;;;;;;4975577;28;20789;-75
2021/12/11 13:50:26;;;;;;;11.57;10.50;;;5.70;99.90;;;;;;4975802;28;20443;-75
2021/12/11 13:52:53;;;;;;;9.57;8.67;;;5.70;99.90;;;;;;4975650;28;20467;-75
2021/12/11 13:55:20;;;;;;;10.07;9.17;;;5.70;99.90;;;;;;4975166;28;20815;-75
2021/12/11 13:57:49;;;;;;;9.97;8.93;;;5.80;99.90;;;;;;4975689;28;20454;-76
2021/12/11 14:00:21;;;;;;;12.97;9.07;;;6.00;99.90;;;;;;4975130;28;20461;-74
2021/12/11 14:02:48;;;;;;;9.20;8.30;;;6.00;99.90;;;;;;4975879;28;20443;-75
2021/12/11 14:05:15;;;;;;;9.33;8.47;;;6.10;99.90;;;;;;4975248;28;20459;-75
2021/12/11 14:07:42;;;;;;;8.10;7.47;;;6.30;99.90;;;;;;4975479;28;20451;-76
2021/12/11 14:10:20;;;;;;;8.43;7.80;;;6.40;99.90;;;;;;4975649;28;20463;-75
2021/12/11 14:12:50;;;;;;;9.07;8.33;;;6.50;99.90;;;;;;4975151;28;20466;-74
2021/12/11 14:15:19;;;;;;;9.27;8.37;;;6.50;99.90;;;;;;4975550;28;20771;-75
2021/12/11 14:17:46;;;;;;;8.93;8.13;;;6.50;99.90;;;;;;4975202;28;20459;-74
2021/12/11 14:20:15;;;;;;;8.20;7.40;;;6.50;99.90;;;;;;4975203;28;20451;-75
2021/12/11 14:22:42;;;;;;;8.83;7.87;;;6.50;99.90;;;;;;4975133;28;20458;-76
2021/12/11 14:25:12;;;;;;;8.40;7.60;;;6.60;99.90;;;;;;4975289;28;20821;-75
2021/12/11 14:27:40;;;;;;;9.00;8.20;;;6.60;99.90;;;;;;4975776;28;20546;-75
2021/12/11 14:30:12;;;;;;;9.13;7.93;;;6.70;99.90;;;;;;4975613;28;20462;-75
2021/12/11 14:32:44;;;;;;;10.37;8.03;;;6.70;99.90;;;;;;4975283;28;20463;-74
2021/12/11 14:35:13;;;;;;;9.40;8.60;;;6.70;99.90;;;;;;4980973;28;20953;-74
2021/12/11 14:37:40;;;;;;;8.63;7.83;;;6.70;99.90;;;;;;4981637;28;20811;-75
2021/12/11 14:40:10;;;;;;;9.20;8.40;;;6.70;99.90;;;;;;4981198;28;20462;-75
2021/12/11 14:42:37;;;;;;;8.90;8.10;;;6.70;99.90;;;;;;4979179;28;20483;-74
2021/12/11 14:45:09;;;;;;;7.73;7.07;;;6.70;99.90;;;;;;4979005;28;20462;-75
2021/12/11 14:47:37;;;;;;;8.10;7.50;;;6.70;99.90;;;;;;4978904;28;20439;-75
2021/12/11 14:50:05;;;;;;;7.90;7.10;;;6.70;99.90;;;;;;4978537;28;20962;-75
2021/12/11 14:52:32;;;;;;;7.90;7.20;;;6.70;99.90;;;;;;4978892;28;20490;-76
2021/12/11 14:55:03;;;;;;;8.77;8.07;;;6.80;99.90;;;;;;4979020;28;20461;-76
2021/12/11 14:57:30;;;;;;;9.30;8.50;;;6.80;99.90;;;;;;4978486;28;20458;-73
2021/12/11 15:00:00;;;;;;;9.93;8.93;;;6.70;99.90;;;;;;4978579;28;20466;-75
2021/12/11 15:02:31;;;;;;;9.27;8.47;;;6.60;99.90;;;;;;4978652;28;21014;-75
2021/12/11 15:05:00;;;;;;;10.07;9.17;;;6.50;99.90;;;;;;4979132;28;20950;-76
2021/12/11 15:07:29;;;;;;;9.50;8.70;;;6.40;99.90;;;;;;4978145;28;20459;-76
2021/12/11 15:09:57;;;;;;;10.17;9.13;;;6.30;99.90;;;;;;4978660;28;20458;-75
2021/12/11 15:12:27;;;;;;;10.30;9.30;;;6.20;99.90;;;;;;4978214;28;20993;-76
2021/12/11 15:14:55;;;;;;;10.13;9.10;;;6.20;99.90;;;;;;4978738;28;20459;-70
2021/12/11 15:17:25;;;;;;;10.90;9.90;;;6.20;99.90;;;;;;4978734;28;20459;-76
2021/12/11 15:19:56;;;;;;;10.30;9.30;;;6.20;99.90;;;;;;4978292;28;20454;-74
2021/12/11 15:22:25;;;;;;;10.90;9.90;;;6.20;99.90;;;;;;4977920;28;20487;-74
2021/12/11 15:24:53;;;;;;;11.47;10.37;;;6.10;99.90;;;;;;4978626;28;20443;-75
2021/12/11 15:27:25;;;;;;;9.63;8.63;;;6.10;99.90;;;;;;4978148;28;20439;-75
2021/12/11 15:29:55;;;;;;;9.97;9.00;;;6.00;99.90;;;;;;4978616;28;20443;-71
2021/12/11 15:32:22;;;;;;;11.83;10.70;;;6.00;99.90;;;;;;4978260;28;20564;-73
2021/12/11 15:34:49;;;;;;;11.40;10.30;;;5.90;99.90;;;;;;4978542;28;20446;-74
2021/12/11 15:37:17;;;;;;;12.77;11.53;;;5.80;99.90;;;;;;4978554;28;20466;-75
2021/12/11 15:39:47;;;;;;;11.97;10.77;;;5.70;99.90;;;;;;4979897;28;20451;-74
2021/12/11 15:42:14;;;;;;;13.03;11.70;;;5.70;99.90;;;;;;4979632;28;20478;-75
2021/12/11 15:44:48;;;;;;;14.33;12.93;;;5.60;99.90;;;;;;4979098;28;20459;-75
2021/12/11 15:47:18;;;;;;;12.97;11.67;;;5.60;99.90;;;;;;4980860;28;20447;-75
2021/12/11 15:49:45;;;;;;;14.00;12.27;;;5.60;99.90;;;;;;4991759;28;20452;-74
2021/12/11 15:52:14;;;;;;;12.67;11.40;;;5.50;99.90;;;;;;4989989;28;20483;-75
2021/12/11 15:54:43;;;;;;;13.63;12.17;;;5.50;99.90;;;;;;4982706;28;20939;-75
2021/12/11 15:57:12;;;;;;;13.93;12.43;;;5.40;99.90;;;;;;4978352;28;20451;-75
2021/12/11 15:59:40;;;;;;;13.90;12.50;;;5.40;99.90;;;;;;4978563;28;20875;-75
2021/12/11 16:02:08;;;;;;;13.40;12.10;;;5.30;99.90;;;;;;4977477;28;20482;-75
2021/12/11 16:04:36;;;;;;;13.13;11.83;;;5.30;99.90;;;;;;4977771;28;20491;-74
2021/12/11 16:07:06;;;;;;;14.83;12.30;;;5.30;99.90;;;;;;4978252;28;20463;-74
2021/12/11 16:09:35;;;;;;;12.37;11.27;;;5.30;99.90;;;;;;4977977;28;20450;-74
2021/12/11 16:12:10;;;;;;;12.90;11.60;;;5.30;99.90;;;;;;4977709;28;20514;-74
2021/12/11 16:14:39;;;;;;;11.27;10.07;;;5.20;99.90;;;;;;4977791;28;20450;-74
2021/12/11 16:17:07;;;;;;;12.20;11.00;;;5.20;99.90;;;;;;4977982;28;20459;-75
2021/12/11 16:19:35;;;;;;;13.17;11.23;;;5.20;99.90;;;;;;4977789;28;20465;-74
2021/12/11 16:22:08;;;;;;;17.57;11.57;;;5.20;99.90;;;;;;4977303;28;20482;-74
2021/12/11 16:24:37;;;;;;;11.20;10.10;;;5.20;99.90;;;;;;4976444;28;20925;-74
2021/12/11 16:27:07;;;;;;;11.97;10.77;;;5.10;99.90;;;;;;4976634;28;20971;-75
2021/12/11 16:29:35;;;;;;;11.50;10.40;;;5.20;99.90;;;;;;4976564;28;20450;-74
2021/12/11 16:32:01;;;;;;;12.17;10.97;;;5.20;99.90;;;;;;4976319;28;20494;-74
2021/12/11 16:34:28;;;;;;;13.17;11.87;;;5.20;99.90;;;;;;4976010;28;20958;-75
2021/12/11 16:36:55;;;;;;;14.20;11.13;;;5.20;99.90;;;;;;4976671;28;20455;-74
2021/12/11 16:39:26;;;;;;;11.30;10.07;;;5.20;99.90;;;;;;4976219;28;20459;-74
2021/12/11 16:41:56;;;;;;;11.70;10.60;;;5.20;99.90;;;;;;4976108;28;20502;-74
2021/12/11 16:44:25;;;;;;;11.57;10.47;;;5.30;99.90;;;;;;4975898;28;20455;-76
2021/12/11 16:46:55;;;;;;;12.57;11.27;;;5.30;99.90;;;;;;4975798;28;20854;-74
2021/12/11 16:49:25;;;;;;;12.07;10.90;;;5.30;99.90;;;;;;4975608;28;20461;-74
2021/12/11 16:51:54;;;;;;;13.23;11.93;;;5.30;99.90;;;;;;4975338;28;20478;-74
2021/12/11 16:54:24;;;;;;;14.17;11.30;;;5.20;99.90;;;;;;4975330;28;20459;-74
2021/12/11 16:56:51;;;;;;;14.60;12.10;;;5.20;99.90;;;;;;4975620;28;20443;-74
2021/12/11 16:59:19;;;;;;;12.60;11.20;;;5.20;99.90;;;;;;4975468;28;20459;-74
2021/12/11 17:01:48;;;;;;;14.03;11.50;;;5.20;99.90;;;;;;4974649;28;20497;-74
2021/12/11 17:04:16;;;;;;;12.93;11.63;;;5.20;99.90;;;;;;4975258;28;20459;-73
2021/12/11 17:06:46;;;;;;;15.30;11.57;;;5.20;99.90;;;;;;4975283;28;20455;-73
2021/12/11 17:09:16;;;;;;;14.70;13.20;;;5.30;99.90;;;;;;4975554;28;20463;-74
2021/12/11 17:11:45;;;;;;;13.67;12.27;;;5.30;99.90;;;;;;4975338;28;20483;-74
2021/12/11 17:14:12;;;;;;;13.27;11.97;;;5.30;99.90;;;;;;4975372;28;20858;-74
2021/12/11 17:16:40;;;;;;;13.70;12.27;;;5.40;99.90;;;;;;4975359;28;20894;-74
2021/12/11 17:19:09;;;;;;;14.40;12.90;;;5.40;99.90;;;;;;4974932;28;20938;-74
2021/12/11 17:21:36;;;;;;;14.60;13.10;;;5.40;99.90;;;;;;4975121;28;21009;-74
2021/12/11 17:24:03;;;;;;;15.17;13.70;;;5.40;99.90;;;;;;4975369;28;20534;-74
2021/12/11 17:26:30;;;;;;;19.33;17.23;;;5.50;99.90;;;;;;4974881;28;20459;-74
2021/12/11 17:29:01;;;;;;;16.17;14.20;;;5.50;99.90;;;;;;4974931;28;20459;-74
2021/12/11 17:31:28;;;;;;;15.83;13.90;;;5.40;99.90;;;;;;4974777;28;20978;-74
2021/12/11 17:33:55;;;;;;;19.27;17.43;;;5.40;99.90;;;;;;4974702;28;20474;-74
2021/12/11 17:36:24;;;;;;;17.93;14.73;;;5.40;99.90;;;;;;4975232;28;20454;-74
2021/12/11 17:38:53;;;;;;;18.73;14.87;;;5.40;99.90;;;;;;4974985;28;20459;-74
2021/12/11 17:41:20;;;;;;;28.77;22.70;;;5.40;99.90;;;;;;4974623;28;21030;-74
2021/12/11 17:43:48;;;;;;;23.10;18.53;;;5.40;99.90;;;;;;4974991;28;20455;-74
2021/12/11 17:46:20;;;;;;;19.60;15.83;;;5.50;99.90;;;;;;4974959;28;20464;-74
2021/12/11 17:48:48;;;;;;;18.60;15.33;;;5.50;99.90;;;;;;4974896;28;20440;-74
2021/12/11 17:51:15;;;;;;;22.67;17.20;;;5.50;99.90;;;;;;4974921;28;20993;-74